sensor_id;sensor_type;location;lat;lon;timestamp;P1;durP1;ratioP1;P2;durP2;ratioP2
7783;SDS011;19359;51.402;6.778;2023-12-14T00:01:11;78.35;;;64.00;;
7783;SDS011;19359;51.402;6.778;2023-12-14T00:03:40;66.20;;;55.65;;
7783;SDS011;19359;51.402;6.778;2023-12-14T00:06:09;78.50;;;63.53;;
7783;SDS011;19359;51.402;6.778;2023-12-14T00:08:36;74.38;;;59.90;;
7783;SDS011;19359;51.402;6.778;2023-12-14T00:11:04;72.70;;;57.75;;
7783;SDS011;19359;51.402;6.778;2023-12-14T00:13:31;64.72;;;54.72;;
7783;SDS011;19359;51.402;6.778;2023-12-14T00:15:58;73.95;;;60.42;;
7783;SDS011;19359;51.402;6.778;2023-12-14T00:18:25;67.93;;;58.17;;
7783;SDS011;19359;51.402;6.778;2023-12-14T00:20:54;48.45;;;44.20;;
7783;SDS011;19359;51.402;6.778;2023-12-14T00:23:21;51.88;;;46.85;;
7783;SDS011;19359;51.402;6.778;2023-12-14T00:25:48;58.30;;;52.03;;
7783;SDS011;19359;51.402;6.778;2023-12-14T00:28:15;52.58;;;47.00;;
7783;SDS011;19359;51.402;6.778;2023-12-14T00:30:41;55.03;;;48.83;;
7783;SDS011;19359;51.402;6.778;2023-12-14T00:33:08;66.72;;;56.35;;
7783;SDS011;19359;51.402;6.778;2023-12-14T00:35:35;54.90;;;49.17;;
7783;SDS011;19359;51.402;6.778;2023-12-14T00:38:03;64.20;;;56.25;;
7783;SDS011;19359;51.402;6.778;2023-12-14T00:40:30;67.40;;;55.55;;
7783;SDS011;19359;51.402;6.778;2023-12-14T00:42:57;47.92;;;43.25;;
7783;SDS011;19359;51.402;6.778;2023-12-14T00:45:24;46.70;;;42.40;;
7783;SDS011;19359;51.402;6.778;2023-12-14T00:47:51;53.80;;;48.17;;
7783;SDS011;19359;51.402;6.778;2023-12-14T00:50:17;46.47;;;42.30;;
7783;SDS011;19359;51.402;6.778;2023-12-14T00:52:44;38.78;;;35.38;;
7783;SDS011;19359;51.402;6.778;2023-12-14T00:55:12;40.78;;;37.20;;
7783;SDS011;19359;51.402;6.778;2023-12-14T00:57:39;60.90;;;54.38;;
7783;SDS011;19359;51.402;6.778;2023-12-14T01:00:06;62.38;;;55.22;;
7783;SDS011;19359;51.402;6.778;2023-12-14T01:02:35;59.00;;;51.75;;
7783;SDS011;19359;51.402;6.778;2023-12-14T01:05:02;75.88;;;60.97;;
7783;SDS011;19359;51.402;6.778;2023-12-14T01:07:29;72.43;;;58.90;;
7783;SDS011;19359;51.402;6.778;2023-12-14T01:09:56;65.50;;;57.00;;
7783;SDS011;19359;51.402;6.778;2023-12-14T01:12:24;63.13;;;56.25;;
7783;SDS011;19359;51.402;6.778;2023-12-14T01:14:51;77.25;;;60.78;;
7783;SDS011;19359;51.402;6.778;2023-12-14T01:17:18;69.93;;;56.88;;
7783;SDS011;19359;51.402;6.778;2023-12-14T01:19:45;74.70;;;61.17;;
7783;SDS011;19359;51.402;6.778;2023-12-14T01:22:11;58.92;;;51.80;;
7783;SDS011;19359;51.402;6.778;2023-12-14T01:24:38;70.85;;;56.45;;
7783;SDS011;19359;51.402;6.778;2023-12-14T01:27:05;71.10;;;59.20;;
7783;SDS011;19359;51.402;6.778;2023-12-14T01:29:35;57.10;;;50.95;;
7783;SDS011;19359;51.402;6.778;2023-12-14T01:32:02;53.80;;;48.17;;
7783;SDS011;19359;51.402;6.778;2023-12-14T01:34:29;62.33;;;52.35;;
7783;SDS011;19359;51.402;6.778;2023-12-14T01:36:56;44.97;;;40.78;;
7783;SDS011;19359;51.402;6.778;2023-12-14T01:39:25;50.53;;;45.45;;
7783;SDS011;19359;51.402;6.778;2023-12-14T01:41:52;106.20;;;70.10;;
7783;SDS011;19359;51.402;6.778;2023-12-14T01:44:19;112.45;;;69.18;;
7783;SDS011;19359;51.402;6.778;2023-12-14T01:46:47;87.45;;;62.10;;
7783;SDS011;19359;51.402;6.778;2023-12-14T01:49:14;91.80;;;65.00;;
7783;SDS011;19359;51.402;6.778;2023-12-14T01:51:40;98.15;;;66.28;;
7783;SDS011;19359;51.402;6.778;2023-12-14T01:54:07;52.83;;;46.72;;
7783;SDS011;19359;51.402;6.778;2023-12-14T01:56:34;48.10;;;43.05;;
7783;SDS011;19359;51.402;6.778;2023-12-14T01:59:01;81.07;;;59.60;;
7783;SDS011;19359;51.402;6.778;2023-12-14T02:01:28;48.20;;;43.55;;
7783;SDS011;19359;51.402;6.778;2023-12-14T02:04:05;108.05;;;66.95;;
7783;SDS011;19359;51.402;6.778;2023-12-14T02:06:34;87.72;;;61.08;;
7783;SDS011;19359;51.402;6.778;2023-12-14T02:09:01;59.35;;;50.35;;
7783;SDS011;19359;51.402;6.778;2023-12-14T02:11:28;71.55;;;55.80;;
7783;SDS011;19359;51.402;6.778;2023-12-14T02:13:55;72.55;;;57.60;;
7783;SDS011;19359;51.402;6.778;2023-12-14T02:16:22;49.35;;;44.33;;
7783;SDS011;19359;51.402;6.778;2023-12-14T02:18:49;57.42;;;51.15;;
7783;SDS011;19359;51.402;6.778;2023-12-14T02:21:17;69.38;;;54.75;;
7783;SDS011;19359;51.402;6.778;2023-12-14T02:23:48;96.45;;;58.97;;
7783;SDS011;19359;51.402;6.778;2023-12-14T02:26:15;70.35;;;53.63;;
7783;SDS011;19359;51.402;6.778;2023-12-14T02:28:42;93.53;;;62.00;;
7783;SDS011;19359;51.402;6.778;2023-12-14T02:31:08;94.90;;;62.05;;
7783;SDS011;19359;51.402;6.778;2023-12-14T02:33:35;110.13;;;67.90;;
7783;SDS011;19359;51.402;6.778;2023-12-14T02:36:02;69.90;;;53.78;;
7783;SDS011;19359;51.402;6.778;2023-12-14T02:38:29;101.40;;;69.28;;
7783;SDS011;19359;51.402;6.778;2023-12-14T02:40:57;74.30;;;55.35;;
7783;SDS011;19359;51.402;6.778;2023-12-14T02:43:24;117.13;;;71.30;;
7783;SDS011;19359;51.402;6.778;2023-12-14T02:45:51;79.63;;;59.10;;
7783;SDS011;19359;51.402;6.778;2023-12-14T02:48:18;72.47;;;51.80;;
7783;SDS011;19359;51.402;6.778;2023-12-14T02:50:45;100.88;;;65.43;;
7783;SDS011;19359;51.402;6.778;2023-12-14T02:53:11;78.82;;;54.80;;
7783;SDS011;19359;51.402;6.778;2023-12-14T02:55:38;53.05;;;46.08;;
7783;SDS011;19359;51.402;6.778;2023-12-14T02:58:06;64.18;;;51.63;;
7783;SDS011;19359;51.402;6.778;2023-12-14T03:00:33;64.28;;;51.58;;
7783;SDS011;19359;51.402;6.778;2023-12-14T03:03:00;62.65;;;51.92;;
7783;SDS011;19359;51.402;6.778;2023-12-14T03:05:26;98.32;;;62.97;;
7783;SDS011;19359;51.402;6.778;2023-12-14T03:07:53;85.30;;;57.60;;
7783;SDS011;19359;51.402;6.778;2023-12-14T03:10:20;41.28;;;37.28;;
7783;SDS011;19359;51.402;6.778;2023-12-14T03:12:47;38.88;;;34.72;;
7783;SDS011;19359;51.402;6.778;2023-12-14T03:15:16;42.30;;;37.97;;
7783;SDS011;19359;51.402;6.778;2023-12-14T03:17:44;39.58;;;35.65;;
7783;SDS011;19359;51.402;6.778;2023-12-14T03:20:11;31.95;;;29.45;;
7783;SDS011;19359;51.402;6.778;2023-12-14T03:22:39;32.20;;;29.02;;
7783;SDS011;19359;51.402;6.778;2023-12-14T03:25:06;34.83;;;31.67;;
7783;SDS011;19359;51.402;6.778;2023-12-14T03:27:36;30.67;;;28.13;;
7783;SDS011;19359;51.402;6.778;2023-12-14T03:30:02;26.83;;;24.42;;
7783;SDS011;19359;51.402;6.778;2023-12-14T03:32:34;31.95;;;29.42;;
7783;SDS011;19359;51.402;6.778;2023-12-14T03:35:01;26.70;;;24.52;;
7783;SDS011;19359;51.402;6.778;2023-12-14T03:37:28;38.75;;;35.30;;
7783;SDS011;19359;51.402;6.778;2023-12-14T03:39:55;53.53;;;46.90;;
7783;SDS011;19359;51.402;6.778;2023-12-14T03:42:21;45.92;;;41.22;;
7783;SDS011;19359;51.402;6.778;2023-12-14T03:44:48;41.47;;;37.30;;
7783;SDS011;19359;51.402;6.778;2023-12-14T03:47:16;37.50;;;33.97;;
7783;SDS011;19359;51.402;6.778;2023-12-14T03:49:44;42.70;;;38.45;;
7783;SDS011;19359;51.402;6.778;2023-12-14T03:52:11;45.05;;;40.53;;
7783;SDS011;19359;51.402;6.778;2023-12-14T03:54:38;40.00;;;35.85;;
7783;SDS011;19359;51.402;6.778;2023-12-14T03:57:04;50.38;;;45.13;;
7783;SDS011;19359;51.402;6.778;2023-12-14T03:59:31;72.70;;;55.50;;
7783;SDS011;19359;51.402;6.778;2023-12-14T04:01:58;44.88;;;40.38;;
7783;SDS011;19359;51.402;6.778;2023-12-14T04:04:25;48.35;;;41.17;;
7783;SDS011;19359;51.402;6.778;2023-12-14T04:06:54;71.07;;;54.85;;
7783;SDS011;19359;51.402;6.778;2023-12-14T04:09:20;36.83;;;33.53;;
7783;SDS011;19359;51.402;6.778;2023-12-14T04:11:47;75.78;;;54.08;;
7783;SDS011;19359;51.402;6.778;2023-12-14T04:14:14;55.55;;;46.50;;
7783;SDS011;19359;51.402;6.778;2023-12-14T04:16:40;39.55;;;35.47;;
7783;SDS011;19359;51.402;6.778;2023-12-14T04:19:08;36.85;;;33.17;;
7783;SDS011;19359;51.402;6.778;2023-12-14T04:21:35;37.83;;;34.03;;
7783;SDS011;19359;51.402;6.778;2023-12-14T04:24:04;43.80;;;39.22;;
7783;SDS011;19359;51.402;6.778;2023-12-14T04:26:31;46.60;;;40.47;;
7783;SDS011;19359;51.402;6.778;2023-12-14T04:29:01;45.88;;;40.72;;
7783;SDS011;19359;51.402;6.778;2023-12-14T04:31:28;31.23;;;27.98;;
7783;SDS011;19359;51.402;6.778;2023-12-14T04:33:55;35.13;;;31.65;;
7783;SDS011;19359;51.402;6.778;2023-12-14T04:36:21;46.83;;;41.90;;
7783;SDS011;19359;51.402;6.778;2023-12-14T04:38:49;36.38;;;32.95;;
7783;SDS011;19359;51.402;6.778;2023-12-14T04:41:17;44.83;;;40.17;;
7783;SDS011;19359;51.402;6.778;2023-12-14T04:43:44;34.83;;;27.60;;
7783;SDS011;19359;51.402;6.778;2023-12-14T04:46:11;31.38;;;28.48;;
7783;SDS011;19359;51.402;6.778;2023-12-14T04:48:38;33.13;;;29.92;;
7783;SDS011;19359;51.402;6.778;2023-12-14T04:51:05;32.60;;;29.35;;
7783;SDS011;19359;51.402;6.778;2023-12-14T04:53:37;42.53;;;38.20;;
7783;SDS011;19359;51.402;6.778;2023-12-14T04:56:04;39.75;;;35.80;;
7783;SDS011;19359;51.402;6.778;2023-12-14T04:58:36;25.52;;;22.98;;
7783;SDS011;19359;51.402;6.778;2023-12-14T05:01:03;21.13;;;19.45;;
7783;SDS011;19359;51.402;6.778;2023-12-14T05:03:30;27.83;;;25.35;;
7783;SDS011;19359;51.402;6.778;2023-12-14T05:05:57;33.13;;;29.58;;
7783;SDS011;19359;51.402;6.778;2023-12-14T05:08:24;35.47;;;31.73;;
7783;SDS011;19359;51.402;6.778;2023-12-14T05:10:50;35.15;;;31.42;;
7783;SDS011;19359;51.402;6.778;2023-12-14T05:13:17;25.55;;;23.10;;
7783;SDS011;19359;51.402;6.778;2023-12-14T05:15:45;16.10;;;14.90;;
7783;SDS011;19359;51.402;6.778;2023-12-14T05:18:12;17.27;;;15.55;;
7783;SDS011;19359;51.402;6.778;2023-12-14T05:20:39;20.45;;;19.23;;
7783;SDS011;19359;51.402;6.778;2023-12-14T05:23:06;17.58;;;15.95;;
7783;SDS011;19359;51.402;6.778;2023-12-14T05:25:33;22.60;;;21.00;;
7783;SDS011;19359;51.402;6.778;2023-12-14T05:28:00;20.42;;;18.25;;
7783;SDS011;19359;51.402;6.778;2023-12-14T05:30:27;21.38;;;19.70;;
7783;SDS011;19359;51.402;6.778;2023-12-14T05:32:56;23.23;;;18.90;;
7783;SDS011;19359;51.402;6.778;2023-12-14T05:35:23;25.05;;;23.08;;
7783;SDS011;19359;51.402;6.778;2023-12-14T05:37:50;21.08;;;19.00;;
7783;SDS011;19359;51.402;6.778;2023-12-14T05:40:17;25.75;;;23.65;;
7783;SDS011;19359;51.402;6.778;2023-12-14T05:42:44;21.55;;;19.67;;
7783;SDS011;19359;51.402;6.778;2023-12-14T05:45:11;18.15;;;16.42;;
7783;SDS011;19359;51.402;6.778;2023-12-14T05:47:37;15.30;;;13.90;;
7783;SDS011;19359;51.402;6.778;2023-12-14T05:50:08;28.23;;;25.33;;
7783;SDS011;19359;51.402;6.778;2023-12-14T05:52:35;23.08;;;21.27;;
7783;SDS011;19359;51.402;6.778;2023-12-14T05:55:02;27.83;;;25.30;;
7783;SDS011;19359;51.402;6.778;2023-12-14T05:57:29;22.35;;;20.05;;
7783;SDS011;19359;51.402;6.778;2023-12-14T05:59:56;23.67;;;20.38;;
7783;SDS011;19359;51.402;6.778;2023-12-14T06:02:23;23.20;;;16.52;;
7783;SDS011;19359;51.402;6.778;2023-12-14T06:04:49;19.98;;;18.00;;
7783;SDS011;19359;51.402;6.778;2023-12-14T06:07:18;15.68;;;14.18;;
7783;SDS011;19359;51.402;6.778;2023-12-14T06:09:44;18.15;;;13.35;;
7783;SDS011;19359;51.402;6.778;2023-12-14T06:12:11;19.65;;;16.67;;
7783;SDS011;19359;51.402;6.778;2023-12-14T06:14:39;14.75;;;13.20;;
7783;SDS011;19359;51.402;6.778;2023-12-14T06:17:05;17.00;;;15.23;;
7783;SDS011;19359;51.402;6.778;2023-12-14T06:19:33;19.48;;;13.68;;
7783;SDS011;19359;51.402;6.778;2023-12-14T06:22:00;15.50;;;13.00;;
7783;SDS011;19359;51.402;6.778;2023-12-14T06:24:28;18.88;;;9.60;;
7783;SDS011;19359;51.402;6.778;2023-12-14T06:26:55;20.33;;;15.65;;
7783;SDS011;19359;51.402;6.778;2023-12-14T06:29:22;20.17;;;17.35;;
7783;SDS011;19359;51.402;6.778;2023-12-14T06:31:51;17.83;;;16.20;;
7783;SDS011;19359;51.402;6.778;2023-12-14T06:34:18;23.00;;;20.67;;
7783;SDS011;19359;51.402;6.778;2023-12-14T06:36:44;19.33;;;17.63;;
7783;SDS011;19359;51.402;6.778;2023-12-14T06:39:11;18.08;;;13.60;;
7783;SDS011;19359;51.402;6.778;2023-12-14T06:41:40;36.33;;;27.75;;
7783;SDS011;19359;51.402;6.778;2023-12-14T06:44:07;26.88;;;24.38;;
7783;SDS011;19359;51.402;6.778;2023-12-14T06:46:34;23.75;;;21.45;;
7783;SDS011;19359;51.402;6.778;2023-12-14T06:49:01;34.85;;;31.25;;
7783;SDS011;19359;51.402;6.778;2023-12-14T06:51:28;24.50;;;19.63;;
7783;SDS011;19359;51.402;6.778;2023-12-14T06:53:55;18.58;;;15.07;;
7783;SDS011;19359;51.402;6.778;2023-12-14T06:56:22;29.35;;;16.63;;
7783;SDS011;19359;51.402;6.778;2023-12-14T06:58:50;20.67;;;16.30;;
7783;SDS011;19359;51.402;6.778;2023-12-14T07:01:17;23.75;;;12.13;;
7783;SDS011;19359;51.402;6.778;2023-12-14T07:03:44;20.45;;;14.27;;
7783;SDS011;19359;51.402;6.778;2023-12-14T07:06:11;21.33;;;13.02;;
7783;SDS011;19359;51.402;6.778;2023-12-14T07:08:39;31.80;;;15.32;;
7783;SDS011;19359;51.402;6.778;2023-12-14T07:11:06;12.90;;;8.52;;
7783;SDS011;19359;51.402;6.778;2023-12-14T07:13:34;13.85;;;10.90;;
7783;SDS011;19359;51.402;6.778;2023-12-14T07:16:04;19.27;;;13.38;;
7783;SDS011;19359;51.402;6.778;2023-12-14T07:18:32;29.45;;;13.32;;
7783;SDS011;19359;51.402;6.778;2023-12-14T07:20:59;17.27;;;12.85;;
7783;SDS011;19359;51.402;6.778;2023-12-14T07:23:26;20.25;;;13.25;;
7783;SDS011;19359;51.402;6.778;2023-12-14T07:25:53;30.70;;;14.98;;
7783;SDS011;19359;51.402;6.778;2023-12-14T07:28:20;21.73;;;18.42;;
7783;SDS011;19359;51.402;6.778;2023-12-14T07:30:48;27.90;;;18.65;;
7783;SDS011;19359;51.402;6.778;2023-12-14T07:33:17;25.95;;;18.35;;
7783;SDS011;19359;51.402;6.778;2023-12-14T07:35:44;22.88;;;13.93;;
7783;SDS011;19359;51.402;6.778;2023-12-14T07:38:11;18.45;;;14.38;;
7783;SDS011;19359;51.402;6.778;2023-12-14T07:40:38;28.10;;;14.68;;
7783;SDS011;19359;51.402;6.778;2023-12-14T07:43:05;20.67;;;16.48;;
7783;SDS011;19359;51.402;6.778;2023-12-14T07:45:33;24.15;;;16.85;;
7783;SDS011;19359;51.402;6.778;2023-12-14T07:48:00;28.27;;;25.15;;
7783;SDS011;19359;51.402;6.778;2023-12-14T07:50:30;62.20;;;45.95;;
7783;SDS011;19359;51.402;6.778;2023-12-14T07:52:57;78.40;;;52.20;;
7783;SDS011;19359;51.402;6.778;2023-12-14T07:55:24;66.30;;;49.78;;
7783;SDS011;19359;51.402;6.778;2023-12-14T07:57:50;104.10;;;58.35;;
7783;SDS011;19359;51.402;6.778;2023-12-14T08:00:18;84.57;;;49.72;;
7783;SDS011;19359;51.402;6.778;2023-12-14T08:02:44;68.10;;;49.65;;
7783;SDS011;19359;51.402;6.778;2023-12-14T08:05:12;65.20;;;47.22;;
7783;SDS011;19359;51.402;6.778;2023-12-14T08:07:40;78.18;;;51.25;;
7783;SDS011;19359;51.402;6.778;2023-12-14T08:10:07;61.67;;;47.50;;
7783;SDS011;19359;51.402;6.778;2023-12-14T08:12:35;77.75;;;49.45;;
7783;SDS011;19359;51.402;6.778;2023-12-14T08:15:01;72.18;;;47.33;;
7783;SDS011;19359;51.402;6.778;2023-12-14T08:17:29;75.38;;;50.97;;
7783;SDS011;19359;51.402;6.778;2023-12-14T08:19:55;36.95;;;33.17;;
7783;SDS011;19359;51.402;6.778;2023-12-14T08:22:22;63.30;;;48.22;;
7783;SDS011;19359;51.402;6.778;2023-12-14T08:24:51;55.25;;;43.75;;
7783;SDS011;19359;51.402;6.778;2023-12-14T08:27:17;37.58;;;33.85;;
7783;SDS011;19359;51.402;6.778;2023-12-14T08:29:44;70.47;;;51.28;;
7783;SDS011;19359;51.402;6.778;2023-12-14T08:32:11;71.00;;;51.50;;
7783;SDS011;19359;51.402;6.778;2023-12-14T08:34:39;81.28;;;51.53;;
7783;SDS011;19359;51.402;6.778;2023-12-14T08:37:08;77.32;;;53.63;;
7783;SDS011;19359;51.402;6.778;2023-12-14T08:39:35;54.40;;;43.53;;
7783;SDS011;19359;51.402;6.778;2023-12-14T08:42:03;45.72;;;40.88;;
7783;SDS011;19359;51.402;6.778;2023-12-14T08:44:30;48.33;;;38.80;;
7783;SDS011;19359;51.402;6.778;2023-12-14T08:47:00;49.67;;;38.80;;
7783;SDS011;19359;51.402;6.778;2023-12-14T08:49:28;46.55;;;40.92;;
7783;SDS011;19359;51.402;6.778;2023-12-14T08:51:55;47.75;;;39.55;;
7783;SDS011;19359;51.402;6.778;2023-12-14T08:54:22;51.85;;;43.72;;
7783;SDS011;19359;51.402;6.778;2023-12-14T08:56:49;51.83;;;44.05;;
7783;SDS011;19359;51.402;6.778;2023-12-14T08:59:18;42.25;;;37.50;;
7783;SDS011;19359;51.402;6.778;2023-12-14T09:01:46;43.58;;;38.97;;
7783;SDS011;19359;51.402;6.778;2023-12-14T09:04:12;58.20;;;43.22;;
7783;SDS011;19359;51.402;6.778;2023-12-14T09:06:40;58.30;;;45.67;;
7783;SDS011;19359;51.402;6.778;2023-12-14T09:09:10;58.30;;;47.58;;
7783;SDS011;19359;51.402;6.778;2023-12-14T09:11:36;53.47;;;45.85;;
7783;SDS011;19359;51.402;6.778;2023-12-14T09:14:03;58.40;;;47.15;;
7783;SDS011;19359;51.402;6.778;2023-12-14T09:16:31;56.08;;;43.50;;
7783;SDS011;19359;51.402;6.778;2023-12-14T09:18:58;57.08;;;38.17;;
7783;SDS011;19359;51.402;6.778;2023-12-14T09:21:25;73.38;;;52.90;;
7783;SDS011;19359;51.402;6.778;2023-12-14T09:23:51;67.15;;;47.63;;
7783;SDS011;19359;51.402;6.778;2023-12-14T09:26:19;65.82;;;45.17;;
7783;SDS011;19359;51.402;6.778;2023-12-14T09:28:45;42.75;;;35.58;;
7783;SDS011;19359;51.402;6.778;2023-12-14T09:31:12;26.90;;;24.10;;
7783;SDS011;19359;51.402;6.778;2023-12-14T09:33:42;51.05;;;38.80;;
7783;SDS011;19359;51.402;6.778;2023-12-14T09:36:09;53.90;;;45.00;;
7783;SDS011;19359;51.402;6.778;2023-12-14T09:38:36;48.72;;;39.42;;
7783;SDS011;19359;51.402;6.778;2023-12-14T09:41:03;58.40;;;44.30;;
7783;SDS011;19359;51.402;6.778;2023-12-14T09:43:32;88.00;;;55.58;;
7783;SDS011;19359;51.402;6.778;2023-12-14T09:45:59;90.25;;;55.90;;
7783;SDS011;19359;51.402;6.778;2023-12-14T09:48:28;98.97;;;58.80;;
7783;SDS011;19359;51.402;6.778;2023-12-14T09:50:57;72.10;;;52.50;;
7783;SDS011;19359;51.402;6.778;2023-12-14T09:53:23;47.35;;;39.58;;
7783;SDS011;19359;51.402;6.778;2023-12-14T09:55:52;74.43;;;52.90;;
7783;SDS011;19359;51.402;6.778;2023-12-14T09:58:18;62.58;;;48.83;;
7783;SDS011;19359;51.402;6.778;2023-12-14T10:00:46;52.40;;;46.33;;
7783;SDS011;19359;51.402;6.778;2023-12-14T10:03:20;54.03;;;43.47;;
7783;SDS011;19359;51.402;6.778;2023-12-14T10:05:47;60.15;;;49.58;;
7783;SDS011;19359;51.402;6.778;2023-12-14T10:08:16;33.67;;;30.08;;
7783;SDS011;19359;51.402;6.778;2023-12-14T10:10:43;41.28;;;37.20;;
7783;SDS011;19359;51.402;6.778;2023-12-14T10:13:10;43.88;;;37.25;;
7783;SDS011;19359;51.402;6.778;2023-12-14T10:15:40;40.63;;;36.60;;
7783;SDS011;19359;51.402;6.778;2023-12-14T10:18:08;39.10;;;33.30;;
7783;SDS011;19359;51.402;6.778;2023-12-14T10:20:35;31.73;;;28.83;;
7783;SDS011;19359;51.402;6.778;2023-12-14T10:23:03;49.65;;;42.25;;
7783;SDS011;19359;51.402;6.778;2023-12-14T10:28:01;35.15;;;31.75;;
7783;SDS011;19359;51.402;6.778;2023-12-14T10:30:28;36.35;;;32.95;;
7783;SDS011;19359;51.402;6.778;2023-12-14T10:32:56;40.13;;;36.25;;
7783;SDS011;19359;51.402;6.778;2023-12-14T10:35:23;37.58;;;34.00;;
7783;SDS011;19359;51.402;6.778;2023-12-14T10:37:51;38.95;;;35.22;;
7783;SDS011;19359;51.402;6.778;2023-12-14T10:40:19;38.55;;;34.95;;
7783;SDS011;19359;51.402;6.778;2023-12-14T10:42:47;37.55;;;34.05;;
7783;SDS011;19359;51.402;6.778;2023-12-14T10:45:16;55.20;;;47.72;;
7783;SDS011;19359;51.402;6.778;2023-12-14T10:47:45;72.50;;;52.85;;
7783;SDS011;19359;51.402;6.778;2023-12-14T10:50:14;61.60;;;48.10;;
7783;SDS011;19359;51.402;6.778;2023-12-14T10:52:42;78.35;;;55.50;;
7783;SDS011;19359;51.402;6.778;2023-12-14T10:55:10;78.82;;;54.95;;
7783;SDS011;19359;51.402;6.778;2023-12-14T10:57:41;47.60;;;42.58;;
7783;SDS011;19359;51.402;6.778;2023-12-14T11:00:10;70.28;;;52.72;;
7783;SDS011;19359;51.402;6.778;2023-12-14T11:02:39;76.70;;;53.45;;
7783;SDS011;19359;51.402;6.778;2023-12-14T11:05:09;42.28;;;37.95;;
7783;SDS011;19359;51.402;6.778;2023-12-14T11:08:00;54.53;;;44.28;;
7783;SDS011;19359;51.402;6.778;2023-12-14T11:10:38;47.67;;;41.38;;
7783;SDS011;19359;51.402;6.778;2023-12-14T11:13:06;60.30;;;48.95;;
7783;SDS011;19359;51.402;6.778;2023-12-14T11:15:37;68.78;;;50.85;;
7783;SDS011;19359;51.402;6.778;2023-12-14T11:18:23;58.85;;;47.88;;
7783;SDS011;19359;51.402;6.778;2023-12-14T11:20:53;54.75;;;45.78;;
7783;SDS011;19359;51.402;6.778;2023-12-14T11:23:33;42.95;;;38.40;;
7783;SDS011;19359;51.402;6.778;2023-12-14T11:26:04;64.95;;;50.08;;
7783;SDS011;19359;51.402;6.778;2023-12-14T11:28:32;50.38;;;44.22;;
7783;SDS011;19359;51.402;6.778;2023-12-14T11:31:00;47.42;;;41.95;;
7783;SDS011;19359;51.402;6.778;2023-12-14T11:33:31;56.03;;;45.97;;
7783;SDS011;19359;51.402;6.778;2023-12-14T11:35:59;54.05;;;42.63;;
7783;SDS011;19359;51.402;6.778;2023-12-14T11:38:28;42.00;;;37.95;;
7783;SDS011;19359;51.402;6.778;2023-12-14T11:40:56;62.63;;;48.38;;
7783;SDS011;19359;51.402;6.778;2023-12-14T11:43:24;55.47;;;44.80;;
7783;SDS011;19359;51.402;6.778;2023-12-14T11:45:51;71.35;;;50.72;;
7783;SDS011;19359;51.402;6.778;2023-12-14T11:48:19;69.18;;;51.17;;
7783;SDS011;19359;51.402;6.778;2023-12-14T11:50:46;53.17;;;44.72;;
7783;SDS011;19359;51.402;6.778;2023-12-14T11:53:13;45.80;;;40.88;;
7783;SDS011;19359;51.402;6.778;2023-12-14T11:55:40;44.72;;;40.00;;
7783;SDS011;19359;51.402;6.778;2023-12-14T11:58:10;48.15;;;41.47;;
7783;SDS011;19359;51.402;6.778;2023-12-14T12:00:39;67.43;;;47.22;;
7783;SDS011;19359;51.402;6.778;2023-12-14T12:03:10;48.83;;;43.47;;
7783;SDS011;19359;51.402;6.778;2023-12-14T12:05:39;45.28;;;40.53;;
7783;SDS011;19359;51.402;6.778;2023-12-14T12:08:07;56.05;;;44.28;;
7783;SDS011;19359;51.402;6.778;2023-12-14T12:10:35;50.22;;;44.42;;
7783;SDS011;19359;51.402;6.778;2023-12-14T12:13:02;69.40;;;50.35;;
7783;SDS011;19359;51.402;6.778;2023-12-14T12:15:32;55.88;;;47.15;;
7783;SDS011;19359;51.402;6.778;2023-12-14T12:18:01;70.63;;;50.40;;
7783;SDS011;19359;51.402;6.778;2023-12-14T12:20:29;71.45;;;50.33;;
7783;SDS011;19359;51.402;6.778;2023-12-14T12:22:56;59.13;;;47.58;;
7783;SDS011;19359;51.402;6.778;2023-12-14T12:25:22;73.07;;;52.33;;
7783;SDS011;19359;51.402;6.778;2023-12-14T12:27:49;51.20;;;43.25;;
7783;SDS011;19359;51.402;6.778;2023-12-14T12:30:16;61.03;;;47.70;;
7783;SDS011;19359;51.402;6.778;2023-12-14T12:32:44;62.47;;;47.30;;
7783;SDS011;19359;51.402;6.778;2023-12-14T12:35:11;50.53;;;41.35;;
7783;SDS011;19359;51.402;6.778;2023-12-14T12:37:38;59.97;;;46.13;;
7783;SDS011;19359;51.402;6.778;2023-12-14T12:40:05;66.10;;;50.35;;
7783;SDS011;19359;51.402;6.778;2023-12-14T12:42:33;47.78;;;42.28;;
7783;SDS011;19359;51.402;6.778;2023-12-14T12:45:00;49.83;;;42.72;;
7783;SDS011;19359;51.402;6.778;2023-12-14T12:47:27;51.20;;;43.33;;
7783;SDS011;19359;51.402;6.778;2023-12-14T12:49:55;57.25;;;47.72;;
7783;SDS011;19359;51.402;6.778;2023-12-14T12:52:22;44.92;;;39.90;;
7783;SDS011;19359;51.402;6.778;2023-12-14T12:54:48;39.15;;;35.33;;
7783;SDS011;19359;51.402;6.778;2023-12-14T12:57:15;45.67;;;40.50;;
7783;SDS011;19359;51.402;6.778;2023-12-14T12:59:42;38.63;;;35.00;;
7783;SDS011;19359;51.402;6.778;2023-12-14T13:02:09;37.20;;;33.72;;
7783;SDS011;19359;51.402;6.778;2023-12-14T13:04:36;32.17;;;29.48;;
7783;SDS011;19359;51.402;6.778;2023-12-14T13:07:04;34.95;;;31.50;;
7783;SDS011;19359;51.402;6.778;2023-12-14T13:09:31;35.90;;;32.40;;
7783;SDS011;19359;51.402;6.778;2023-12-14T13:11:58;32.10;;;29.40;;
7783;SDS011;19359;51.402;6.778;2023-12-14T13:14:24;34.67;;;31.33;;
7783;SDS011;19359;51.402;6.778;2023-12-14T13:16:51;38.80;;;34.97;;
7783;SDS011;19359;51.402;6.778;2023-12-14T13:19:18;36.58;;;33.10;;
7783;SDS011;19359;51.402;6.778;2023-12-14T13:21:45;38.53;;;34.92;;
7783;SDS011;19359;51.402;6.778;2023-12-14T13:24:13;38.60;;;34.95;;
7783;SDS011;19359;51.402;6.778;2023-12-14T13:26:40;46.10;;;40.97;;
7783;SDS011;19359;51.402;6.778;2023-12-14T13:29:07;42.22;;;37.83;;
7783;SDS011;19359;51.402;6.778;2023-12-14T13:31:34;40.20;;;36.33;;
7783;SDS011;19359;51.402;6.778;2023-12-14T13:34:00;40.28;;;36.20;;
7783;SDS011;19359;51.402;6.778;2023-12-14T13:36:28;33.75;;;30.75;;
7783;SDS011;19359;51.402;6.778;2023-12-14T13:38:55;35.38;;;32.30;;
7783;SDS011;19359;51.402;6.778;2023-12-14T13:41:24;36.60;;;33.17;;
7783;SDS011;19359;51.402;6.778;2023-12-14T13:43:50;45.85;;;40.67;;
7783;SDS011;19359;51.402;6.778;2023-12-14T13:46:17;46.35;;;41.35;;
7783;SDS011;19359;51.402;6.778;2023-12-14T13:48:44;39.28;;;35.40;;
7783;SDS011;19359;51.402;6.778;2023-12-14T13:51:11;43.20;;;38.70;;
7783;SDS011;19359;51.402;6.778;2023-12-14T13:53:37;43.80;;;38.85;;
7783;SDS011;19359;51.402;6.778;2023-12-14T13:56:04;40.85;;;36.88;;
7783;SDS011;19359;51.402;6.778;2023-12-14T13:58:33;37.42;;;34.00;;
7783;SDS011;19359;51.402;6.778;2023-12-14T14:01:03;47.33;;;41.92;;
7783;SDS011;19359;51.402;6.778;2023-12-14T14:03:32;45.90;;;41.10;;
7783;SDS011;19359;51.402;6.778;2023-12-14T14:05:58;43.85;;;39.38;;
7783;SDS011;19359;51.402;6.778;2023-12-14T14:08:25;33.95;;;31.02;;
7783;SDS011;19359;51.402;6.778;2023-12-14T14:10:52;43.08;;;38.72;;
7783;SDS011;19359;51.402;6.778;2023-12-14T14:13:19;37.15;;;33.70;;
7783;SDS011;19359;51.402;6.778;2023-12-14T14:15:48;99.10;;;50.30;;
7783;SDS011;19359;51.402;6.778;2023-12-14T14:18:14;36.90;;;33.47;;
7783;SDS011;19359;51.402;6.778;2023-12-14T14:20:42;40.38;;;36.42;;
7783;SDS011;19359;51.402;6.778;2023-12-14T14:23:09;40.47;;;36.33;;
7783;SDS011;19359;51.402;6.778;2023-12-14T14:25:35;41.25;;;36.83;;
7783;SDS011;19359;51.402;6.778;2023-12-14T14:28:02;36.20;;;32.97;;
7783;SDS011;19359;51.402;6.778;2023-12-14T14:30:30;41.85;;;37.55;;
7783;SDS011;19359;51.402;6.778;2023-12-14T14:32:58;36.17;;;32.58;;
7783;SDS011;19359;51.402;6.778;2023-12-14T14:35:25;37.83;;;34.13;;
7783;SDS011;19359;51.402;6.778;2023-12-14T14:37:53;31.40;;;28.65;;